<<    Mai 2012    >>
Datum    Temp.       Tempmin      Tempmax    Taup.       Taup.min      Taup.max    Feuchte    Feuchtemin    Feuchtemax    Druck    Druckmin    Druckmax    Regen    Wind    Benmax  
  01.05.2012  18,1    14,0    06:55    23,1    16:47  10,6    5,4    02:56    17,1    10:39  65,6    35    16:50    98    04:34  1015,1    1011    01:10    1018    23:59  3,0  2,0  14,4  
  02.05.2012  15,3    14,0    23:59    17,7    16:23  13,3    11,7    00:00    15,5    15:52  87,7    77    10:24    97    13:47  1014,4    1011    18:54    1018    00:00  1,0  2,2  14,4  
  03.05.2012  14,4    9,9    05:11    19,8    16:47  9,1    5,8    17:31    13,4    00:00  72,9    42    16:49    98    00:46  1011,7    1009    22:09    1014    00:25  0,0  1,6  13,0  
  04.05.2012  16,4    12,2    01:18    22,4    13:07  7,7    5,0    12:33    9,7    21:24  58,2    34    12:18    74    01:35  1005,3    1003    12:54    1010    00:00  0,0  2,2  13,7  
  05.05.2012  9,9    8,9    23:59    12,8    00:03  8,9    6,6    22:07    10,3    16:32  93,7    72    00:00    98    06:17  1006,1    1003    01:39    1010    22:08  7,5  3,2  14,0  
  06.05.2012  9,3    8,2    23:59    11,8    15:17  7,9    6,3    06:43    10,2    14:52  91,3    83    16:03    98    19:11  1011,3    1008    05:38    1016    22:38  1,0  3,0  11,9  
  07.05.2012  11,1    7,8    04:07    16,9    15:16  6,1    2,8    17:32    8,0    09:41  74,3    42    17:32    98    00:00  1017,9    1016    00:00    1020    12:54  0,9  1,6  10,4  
  08.05.2012  16,0    8,5    04:40    23,9    16:11  6,7    4,2    12:44    10,1    10:46  58,3    31    15:56    89    07:04  1013,2    1009    16:54    1018    00:08  0,0  2,8  16,6  
  09.05.2012  17,2    14,3    05:45    21,3    16:45  13,8    9,2    00:11    18,1    19:43  81,1    61    00:00    98    23:59  1012,6    1010    03:52    1017    22:37  3,9  1,4  13,0  
  10.05.2012  20,6    14,0    02:38    27,8    17:08  15,7    13,7    02:38    19,2    15:17  76,3    48    16:31    98    00:00  1015,5    1013    19:52    1017    02:07  0,0  2,6  15,8  
  11.05.2012  18,4    13,3    23:59    22,6    00:00  14,2    7,1    23:59    18,7    15:11  77,3    63    00:00    98    13:31  1019,3    1015    03:52    1026    23:59  2,7  2,4  22,7  
  12.05.2012  11,2    7,2    23:59    15,7    16:01  4,2    0,9    17:30    7,1    00:00  63,3    40    16:11    86    07:45  1032,8    1026    00:00    1036    14:38  0,0  4,1  17,3  
  13.05.2012  9,7    3,3    05:49    15,8    16:34  1,0    -1,4    13:09    4,5    08:32  58,1    34    16:35    89    07:01  1032,0    1026    21:21    1037    00:52  0,0  1,8  12,2  
  14.05.2012  13,3    5,0    04:47    22,1    16:24  2,9    1,5    21:00    4,9    09:53  53,6    27    16:47    83    06:17  1019,4    1013    18:06    1027    00:36  0,0  2,0  17,3  
  15.05.2012  10,4    7,6    15:22    15,1    13:17  5,4    2,7    12:58    8,1    15:55  72,0    44    13:18    91    15:52  1011,5    1008    13:21    1015    22:36  3,0  3,5  21,6  
  16.05.2012  9,5    5,7    23:58    14,7    15:35  2,9    -2,1    19:27    7,1    02:41  67,1    37    16:07    98    03:26  1021,6    1015    00:00    1026    20:51  2,8  5,0  21,2  
  17.05.2012  11,1    2,5    05:05    18,6    17:00  0,8    -1,1    12:49    4,0    08:23  53,9    28    17:12    86    06:30  1021,6    1014    22:35    1027    06:07  0,0  2,0  17,6  
  18.05.2012  15,1    11,7    10:03    20,1    13:28  5,1    -0,3    04:08    10,4    23:26  51,8    40    00:00    74    23:41  1010,3    1008    12:35    1014    00:00  0,0  3,6  23,8  
  19.05.2012  18,0    12,2    05:08    24,2    16:20  10,5    9,1    21:06    12,5    11:31  64,0    41    16:23    89    06:41  1010,9    1008    18:50    1014    09:35  0,0  1,6  15,5  
  20.05.2012  19,2    14,9    02:18    27,0    16:35  12,5    10,1    16:43    15,7    10:35  67,5    35    16:35    87    23:59  1006,0    1003    16:20    1008    00:00  0,0  1,4  24,5  
  21.05.2012  19,5    14,1    03:17    25,3    14:09  13,8    11,5    15:03    16,0    10:06  72,1    44    14:57    96    05:11  1000,1    997    13:20    1004    00:00  0,0  2,7  16,2  
  22.05.2012  20,5    14,8    06:05    27,6    17:57  15,4    13,7    05:26    17,3    23:33  74,6    47    17:59    94    06:05  1005,6    999    01:34    1013    23:34  0,0  2,8  13,0  
  23.05.2012  20,2    16,1    06:21    26,0    13:55  15,9    14,5    20:03    17,7    13:29  77,6    57    13:59    95    05:17  1018,2    1013    00:00    1022    21:49  0,0  1,9  12,2  
  24.05.2012  22,7    14,9    05:31    31,5    16:02  13,6    6,4    22:11    17,9    08:38  63,1    31    15:33    98    05:47  1022,3    1020    16:33    1024    06:19  0,0  2,5  20,5  
  25.05.2012  21,2    13,2    06:07    27,9    14:53  4,6    -0,3    22:05    9,1    07:14  37,2    20    15:01    71    06:59  1023,5    1021    16:03    1026    06:03  0,0  3,3  22,7  
  26.05.2012  21,0    12,5    06:21    28,2    16:28  3,9    0,8    00:00    6,1    12:09  34,4    21    16:17    60    07:14  1020,9    1019    15:18    1023    05:18  0,0  1,8  14,0  
  27.05.2012  21,1    13,0    05:38    27,9    16:45  6,7    4,6    00:00    10,4    10:32  41,9    24    15:43    71    06:19  1018,4    1016    17:04    1020    00:00  0,0  1,9  15,8  
  28.05.2012  21,4    15,1    06:03    28,3    16:18  9,8    5,5    20:14    15,3    10:37  50,5    28    19:52    73    06:50  1014,6    1013    14:03    1016    00:00  0,0  2,7  17,3  
  29.05.2012  19,6    13,4    05:23    25,7    14:45  9,2    6,7    15:14    11,6    23:47  52,6    31    14:32    74    06:21  1015,1    1013    19:17    1017    10:02  0,0  3,2  16,9  
  30.05.2012  19,5    15,5    02:02    25,2    16:39  9,5    6,9    19:12    11,6    00:00  54,5    34    17:43    77    02:11  1017,3    1015    04:03    1018    06:48  0,0  2,4  13,7  
  31.05.2012  18,3    14,4    23:59    24,3    13:53  12,5    9,9    00:06    14,9    16:26  70,4    42    14:03    98    23:08  1016,2    1013    16:19    1019    00:47  3,9  2,7  27,0  
 
  Gesamt  16,4  2,5            31,5            8,8  -2,1            19,2            65,1  20            98            1015,5  997            1037            29,5  2,5  27,0  
 
  Mittelwert  16,4  11,4            22,3            8,8  5,7            12,0            65,1  41,7            88,2            1015,5  1011,9            1019,0            1,0  2,5  16,8  
  Minimum  9,3  2,5            11,8            0,8  -2,1            4,0            34,4  20,0            60,0            1000,1  997,0            1004,0            0,0  1,4  10,4  
  Maximum  22,7  16,1            31,5            15,9  14,5            19,2            93,7  83,0            98,0            1032,8  1026,0            1037,0            7,5  5,0  27,0  

  Heie Tage    Tmax >=30C     1  
  Sommertage    Tmax >=25C     12  
  Warme Tage    Tmax >=20C     21  
  Kalte Tage    Tmax  <10C     0  
  Frosttage    Tmin  <0C     0  
  Eistage    Tmax  <0C     0  
  Regentage > 0 mm    10  
  Regentage > 2 mm    7  
  Regentage > 10 mm    0  
  Regentage > 20 mm    0